Time;durP1;ratioP1;P1;durP2;ratioP2;P2;SDS_P1;SDS_P2;PMS_P1;PMS_P2;Temp;Humidity;BMP_temperature;BMP_pressure;BME280_temperature;BME280_humidity;BME280_pressure;Samples;Min_cycle;Max_cycle;Signal;HPM_P1;HPM_P2
2021/11/09 00:02:25;;;;;;;20.80;6.37;;;7.80;99.90;;;;;;5060412;28;20040;-84
2021/11/09 00:04:56;;;;;;;19.53;5.97;;;7.70;99.90;;;;;;5027485;28;20033;-84
2021/11/09 00:09:59;;;;;;;23.63;6.10;;;7.80;99.90;;;;;;5060006;28;20029;-83
2021/11/09 00:12:31;;;;;;;25.20;6.30;;;7.70;99.90;;;;;;5026199;28;20092;-84
2021/11/09 00:14:59;;;;;;;21.47;6.07;;;7.70;99.90;;;;;;5062136;28;20056;-84
2021/11/09 00:17:26;;;;;;;19.63;5.57;;;7.60;99.90;;;;;;5026678;28;20064;-84
2021/11/09 00:19:53;;;;;;;21.17;6.03;;;7.70;99.90;;;;;;5025408;28;20409;-84
2021/11/09 00:22:20;;;;;;;31.53;6.57;;;7.60;99.90;;;;;;5044543;28;20040;-84
2021/11/09 00:24:46;;;;;;;24.83;6.20;;;7.60;99.90;;;;;;5061584;28;20028;-84
2021/11/09 00:27:12;;;;;;;20.70;5.73;;;7.60;99.90;;;;;;5061239;28;20044;-84
2021/11/09 00:29:38;;;;;;;20.00;6.57;;;7.60;99.90;;;;;;5059885;28;20198;-84
2021/11/09 00:32:06;;;;;;;28.63;6.40;;;7.60;99.90;;;;;;5060143;28;20025;-84
2021/11/09 00:34:32;;;;;;;22.23;6.07;;;7.50;99.90;;;;;;5042981;28;20055;-84
2021/11/09 00:36:58;;;;;;;18.83;5.30;;;7.60;99.90;;;;;;5042859;28;20032;-84
2021/11/09 00:39:24;;;;;;;17.27;6.13;;;7.60;99.90;;;;;;5025166;28;20032;-84
2021/11/09 00:41:50;;;;;;;17.03;5.47;;;7.60;99.90;;;;;;5026048;28;20031;-84
2021/11/09 00:44:16;;;;;;;19.20;5.70;;;7.70;99.90;;;;;;5060363;28;20033;-84
2021/11/09 00:46:42;;;;;;;18.40;6.13;;;7.60;99.90;;;;;;5043457;28;20068;-84
2021/11/09 00:49:08;;;;;;;19.53;5.93;;;7.60;99.90;;;;;;5025445;28;20663;-83
2021/11/09 00:51:34;;;;;;;19.53;6.03;;;7.60;99.90;;;;;;5026218;28;20082;-83
2021/11/09 00:54:00;;;;;;;24.83;7.00;;;7.60;99.90;;;;;;5021691;28;20060;-84
2021/11/09 00:56:27;;;;;;;19.67;5.90;;;7.60;99.90;;;;;;5038320;28;20033;-84
2021/11/09 00:58:53;;;;;;;25.77;6.77;;;7.50;99.90;;;;;;5023690;28;20553;-84
2021/11/09 01:01:20;;;;;;;22.53;5.70;;;7.50;99.90;;;;;;5027008;28;20096;-84
2021/11/09 01:03:45;;;;;;;21.17;5.67;;;7.40;99.90;;;;;;5026340;28;20037;-84
2021/11/09 01:06:11;;;;;;;19.97;5.57;;;7.40;99.90;;;;;;5027357;28;20086;-84
2021/11/09 01:08:37;;;;;;;19.87;6.10;;;7.40;99.90;;;;;;5026390;28;20025;-84
2021/11/09 01:11:03;;;;;;;16.03;5.40;;;7.30;99.90;;;;;;5043601;28;20021;-84
2021/11/09 01:13:31;;;;;;;20.23;5.30;;;7.40;99.90;;;;;;5025656;28;20025;-84
2021/11/09 01:15:58;;;;;;;20.27;6.67;;;7.30;99.90;;;;;;5026961;28;20063;-84
2021/11/09 01:18:27;;;;;;;24.30;5.93;;;7.40;99.90;;;;;;5023448;28;20035;-84
2021/11/09 01:20:55;;;;;;;20.85;5.78;;;7.30;99.90;;;;;;5038223;28;20029;-85
2021/11/09 01:23:22;;;;;;;21.33;6.20;;;7.30;99.90;;;;;;5038335;28;20033;-85
2021/11/09 01:25:49;;;;;;;14.73;5.27;;;7.30;99.90;;;;;;5057058;28;20048;-85
2021/11/09 01:28:15;;;;;;;22.23;5.80;;;7.20;99.90;;;;;;5022240;28;20032;-84
2021/11/09 01:30:42;;;;;;;24.47;6.50;;;7.20;99.90;;;;;;5021991;28;20039;-85
2021/11/09 01:33:08;;;;;;;28.67;5.93;;;7.20;99.90;;;;;;5038635;28;20025;-84
2021/11/09 01:35:34;;;;;;;17.10;5.83;;;7.30;99.90;;;;;;5038763;28;20402;-84
2021/11/09 01:38:00;;;;;;;27.50;5.87;;;7.20;99.90;;;;;;5037190;28;20036;-85
2021/11/09 01:40:26;;;;;;;20.77;5.93;;;7.30;99.90;;;;;;5056196;28;20324;-85
2021/11/09 01:42:54;;;;;;;16.60;5.40;;;7.30;99.90;;;;;;5038206;28;20085;-85
2021/11/09 01:45:21;;;;;;;21.17;6.13;;;7.30;99.90;;;;;;5038187;28;20025;-85
2021/11/09 01:47:47;;;;;;;23.13;6.00;;;7.30;99.90;;;;;;5055938;28;20512;-85
2021/11/09 01:50:17;;;;;;;18.57;6.20;;;7.30;99.90;;;;;;5037241;28;20021;-84
2021/11/09 01:52:43;;;;;;;18.57;6.03;;;7.40;99.90;;;;;;5038063;28;20056;-84
2021/11/09 01:55:12;;;;;;;14.87;5.73;;;7.30;99.90;;;;;;5038004;28;20488;-85
2021/11/09 01:57:38;;;;;;;19.73;6.57;;;7.40;99.90;;;;;;5038393;28;20465;-84
2021/11/09 02:00:10;;;;;;;21.80;6.20;;;7.40;99.90;;;;;;5056034;28;20033;-85
2021/11/09 02:02:42;;;;;;;22.97;6.77;;;7.50;99.90;;;;;;5056148;28;20112;-84
2021/11/09 02:05:09;;;;;;;20.67;6.77;;;7.50;99.90;;;;;;5038372;28;20033;-85
2021/11/09 02:07:41;;;;;;;27.07;6.40;;;7.40;99.90;;;;;;5038161;28;20116;-85
2021/11/09 02:10:07;;;;;;;23.57;6.80;;;7.40;99.90;;;;;;5019275;28;20448;-84
2021/11/09 02:12:33;;;;;;;31.47;7.87;;;7.40;99.90;;;;;;5053196;28;20060;-85
2021/11/09 02:14:59;;;;;;;21.97;6.77;;;7.40;99.90;;;;;;5020703;28;20025;-84
2021/11/09 02:17:25;;;;;;;22.30;7.27;;;7.40;99.90;;;;;;5039567;28;20390;-84
2021/11/09 02:19:51;;;;;;;26.03;6.90;;;7.50;99.90;;;;;;5039065;28;20444;-84
2021/11/09 02:22:17;;;;;;;22.43;7.10;;;7.40;99.90;;;;;;5040101;28;20029;-84
2021/11/09 02:24:43;;;;;;;22.93;6.53;;;7.40;99.90;;;;;;5038637;28;20035;-83
2021/11/09 02:27:09;;;;;;;27.60;8.03;;;7.30;99.90;;;;;;5024762;28;20127;-84
2021/11/09 02:29:36;;;;;;;19.67;6.57;;;7.30;99.90;;;;;;5039827;28;20073;-84
2021/11/09 02:32:04;;;;;;;21.40;6.83;;;7.30;99.90;;;;;;5040415;28;20466;-84
2021/11/09 02:34:30;;;;;;;23.00;6.77;;;7.40;99.90;;;;;;5058886;28;20032;-84
2021/11/09 02:36:56;;;;;;;23.03;6.40;;;7.30;99.90;;;;;;5023193;28;20088;-84
2021/11/09 02:39:22;;;;;;;26.07;6.53;;;7.20;99.90;;;;;;5055407;28;20032;-84
2021/11/09 02:41:48;;;;;;;22.00;6.67;;;7.20;99.90;;;;;;5053351;28;20037;-84
2021/11/09 02:44:14;;;;;;;19.23;6.37;;;7.20;99.90;;;;;;5036374;28;20032;-84
2021/11/09 02:46:50;;;;;;;22.30;6.50;;;7.20;99.90;;;;;;5020220;28;20032;-84
2021/11/09 02:49:22;;;;;;;20.40;6.27;;;7.20;99.90;;;;;;5019271;28;20052;-84
2021/11/09 02:52:02;;;;;;;20.00;6.40;;;7.10;99.90;;;;;;5020987;28;20191;-84
2021/11/09 02:54:35;;;;;;;21.63;6.50;;;7.10;99.90;;;;;;5019777;28;20025;-83
2021/11/09 02:57:05;;;;;;;21.37;6.70;;;7.00;99.90;;;;;;5036382;28;20029;-84
2021/11/09 03:05:00;;;;;;;21.50;6.20;;;7.00;99.90;;;;;;5036374;28;20047;-84
2021/11/09 03:07:42;;;;;;;20.90;6.00;;;7.00;99.90;;;;;;5053735;28;20103;-84
2021/11/09 03:12:47;;;;;;;16.80;5.93;;;7.00;99.90;;;;;;5036806;28;20110;-83
2021/11/09 03:15:15;;;;;;;22.73;5.73;;;7.00;99.90;;;;;;5055784;28;20748;-83
2021/11/09 03:17:50;;;;;;;18.43;6.40;;;7.10;99.90;;;;;;5035914;28;20086;-83
2021/11/09 03:45:04;;;;;;;26.80;7.40;;;7.00;99.90;;;;;;5055248;28;20409;-84
2021/11/09 03:47:32;;;;;;;20.63;7.77;;;7.10;99.90;;;;;;5036883;28;20037;-83
2021/11/09 03:49:59;;;;;;;19.13;6.33;;;7.00;99.90;;;;;;5035207;28;20025;-84
2021/11/09 03:52:28;;;;;;;19.67;6.60;;;6.90;99.90;;;;;;5037239;28;20044;-84
2021/11/09 03:55:03;;;;;;;23.50;7.30;;;7.00;99.90;;;;;;5040239;28;20101;-83
2021/11/09 03:57:37;;;;;;;24.27;7.07;;;7.00;99.90;;;;;;5041319;28;20713;-83
2021/11/09 04:03:01;;;;;;;21.67;6.53;;;6.90;99.90;;;;;;5001098;28;20048;-84
2021/11/09 04:05:33;;;;;;;23.20;7.33;;;6.80;99.90;;;;;;5040682;28;20029;-84
2021/11/09 04:08:08;;;;;;;23.03;6.70;;;6.80;99.90;;;;;;5021504;28;20484;-84
2021/11/09 04:13:26;;;;;;;26.40;7.93;;;6.80;99.90;;;;;;5042073;28;20056;-84
2021/11/09 04:21:26;;;;;;;25.27;8.97;;;6.80;99.90;;;;;;5059748;28;20118;-84
2021/11/09 04:27:04;;;;;;;19.80;6.70;;;6.80;99.90;;;;;;5017461;28;19951;-84
2021/11/09 05:09:41;;;;;;;20.13;6.03;;;7.00;99.90;;;;;;5040709;28;20047;-84
2021/11/09 05:12:07;;;;;;;20.67;7.50;;;7.00;99.90;;;;;;5042123;28;20071;-84
2021/11/09 05:14:33;;;;;;;22.50;6.70;;;7.10;99.90;;;;;;5059451;28;20097;-84
2021/11/09 05:17:01;;;;;;;23.03;6.60;;;7.10;99.90;;;;;;5059635;28;20048;-84
2021/11/09 05:19:27;;;;;;;21.60;6.40;;;7.10;99.90;;;;;;5059474;28;20116;-84
2021/11/09 05:21:53;;;;;;;25.50;6.87;;;7.00;99.90;;;;;;5043231;28;20044;-84
2021/11/09 05:24:21;;;;;;;25.60;7.57;;;7.10;99.90;;;;;;5052654;28;20029;-83
2021/11/09 05:26:48;;;;;;;26.75;6.85;;;7.00;99.90;;;;;;5053277;28;20135;-84
2021/11/09 05:29:14;;;;;;;20.87;7.60;;;6.90;99.90;;;;;;5051531;28;20055;-82
2021/11/09 05:31:41;;;;;;;19.37;6.70;;;6.90;99.90;;;;;;5055424;28;20858;-83
2021/11/09 05:34:07;;;;;;;20.50;7.23;;;7.00;99.90;;;;;;5055125;28;20489;-85
2021/11/09 05:36:36;;;;;;;22.50;6.70;;;7.00;99.90;;;;;;5038183;28;20457;-84
2021/11/09 05:39:16;;;;;;;22.63;7.22;;;7.00;99.90;;;;;;5054070;28;20029;-82
2021/11/09 05:41:44;;;;;;;22.33;6.60;;;6.90;99.90;;;;;;5074681;28;20029;-83
2021/11/09 05:44:10;;;;;;;20.43;7.20;;;6.80;99.90;;;;;;5039483;28;20032;-83
2021/11/09 05:46:37;;;;;;;22.80;7.17;;;6.80;99.90;;;;;;5039068;28;20037;-82
2021/11/09 05:49:04;;;;;;;26.30;7.80;;;6.80;99.90;;;;;;5071178;28;20128;-82
2021/11/09 05:51:31;;;;;;;25.67;7.73;;;6.80;99.90;;;;;;5071999;28;20438;-81
2021/11/09 05:54:00;;;;;;;21.13;7.60;;;6.70;99.90;;;;;;5054637;28;20033;-82
2021/11/09 05:56:27;;;;;;;20.00;8.13;;;6.70;99.90;;;;;;5055466;28;20037;-83
2021/11/09 05:58:53;;;;;;;29.03;8.40;;;6.70;99.90;;;;;;5039431;28;20131;-83
2021/11/09 06:01:18;;;;;;;28.50;8.73;;;6.60;99.90;;;;;;5075227;28;20060;-83
2021/11/09 06:03:44;;;;;;;26.03;8.33;;;6.70;99.90;;;;;;5056905;28;20135;-83
2021/11/09 06:06:10;;;;;;;25.33;8.73;;;6.70;99.90;;;;;;5040473;28;20449;-83
2021/11/09 06:08:36;;;;;;;24.73;7.97;;;6.70;99.90;;;;;;5072274;28;20033;-84
2021/11/09 06:11:02;;;;;;;24.27;8.43;;;6.70;99.90;;;;;;5039771;28;20168;-84
2021/11/09 06:13:28;;;;;;;26.13;8.20;;;6.70;99.90;;;;;;5074056;28;20066;-84
2021/11/09 06:15:54;;;;;;;23.37;8.03;;;6.80;99.90;;;;;;5073358;28;20029;-84
2021/11/09 06:18:20;;;;;;;23.93;7.40;;;6.80;99.90;;;;;;5038989;28;20039;-84
2021/11/09 06:20:45;;;;;;;24.50;7.97;;;6.80;99.90;;;;;;5055828;28;20021;-84
2021/11/09 06:23:11;;;;;;;21.17;7.50;;;6.80;99.90;;;;;;5054673;28;20051;-84
2021/11/09 06:25:39;;;;;;;21.50;8.10;;;6.90;99.90;;;;;;5056660;28;20519;-84
2021/11/09 06:28:06;;;;;;;28.63;8.63;;;6.90;99.90;;;;;;5057993;28;20454;-84
2021/11/09 06:30:33;;;;;;;24.40;7.63;;;6.90;99.90;;;;;;5076323;28;20104;-85
2021/11/09 06:32:59;;;;;;;28.30;8.67;;;6.90;99.90;;;;;;5054196;28;20056;-83
2021/11/09 06:35:26;;;;;;;28.60;8.57;;;6.90;99.90;;;;;;5054846;28;20040;-83
2021/11/09 06:37:52;;;;;;;24.90;8.47;;;6.90;99.90;;;;;;5036179;28;20036;-84
2021/11/09 06:40:18;;;;;;;33.53;9.30;;;6.90;99.90;;;;;;5052419;28;20123;-84
2021/11/09 06:42:44;;;;;;;18.70;7.63;;;6.80;99.90;;;;;;5036765;28;20445;-84
2021/11/09 06:45:10;;;;;;;24.10;8.53;;;6.70;99.90;;;;;;5071208;28;20055;-84
2021/11/09 06:47:38;;;;;;;27.27;7.90;;;6.70;99.90;;;;;;5036779;28;20039;-83
2021/11/09 06:50:06;;;;;;;23.77;7.60;;;6.70;99.90;;;;;;5052354;28;20032;-88
2021/11/09 06:52:32;;;;;;;26.27;7.73;;;6.60;99.90;;;;;;5036168;28;20029;-86
2021/11/09 06:54:57;;;;;;;30.10;7.93;;;6.60;99.90;;;;;;5034809;28;20029;-86
2021/11/09 06:57:23;;;;;;;24.40;8.17;;;6.60;99.90;;;;;;5069503;28;20028;-85
2021/11/09 06:59:49;;;;;;;25.13;7.73;;;6.60;99.90;;;;;;5036198;28;20541;-86
2021/11/09 07:02:17;;;;;;;24.80;8.00;;;6.50;99.90;;;;;;5052825;28;20075;-86
2021/11/09 07:04:42;;;;;;;22.70;7.17;;;6.50;99.90;;;;;;5052346;28;20024;-84
2021/11/09 07:07:08;;;;;;;22.47;7.23;;;6.60;99.90;;;;;;5053397;28;20040;-84
2021/11/09 07:09:34;;;;;;;17.83;6.97;;;6.60;99.90;;;;;;5051209;28;20116;-82
2021/11/09 07:12:00;;;;;;;25.10;7.17;;;6.60;99.90;;;;;;5037210;28;20033;-83
2021/11/09 07:14:26;;;;;;;28.33;7.20;;;6.50;99.90;;;;;;5053491;28;20039;-84
2021/11/09 07:16:52;;;;;;;22.17;7.17;;;6.60;99.90;;;;;;5054276;28;20128;-83
2021/11/09 07:19:19;;;;;;;21.17;7.67;;;6.60;99.90;;;;;;5052798;28;20081;-83
2021/11/09 07:21:46;;;;;;;23.47;7.57;;;6.60;99.90;;;;;;5037041;28;20025;-84
2021/11/09 07:24:13;;;;;;;27.90;8.07;;;6.60;99.90;;;;;;5051469;28;20055;-84
2021/11/09 07:26:39;;;;;;;28.03;8.40;;;6.60;99.90;;;;;;5071538;28;20043;-86
2021/11/09 07:29:05;;;;;;;22.07;7.43;;;6.70;99.90;;;;;;5054335;28;20119;-84
2021/11/09 07:31:32;;;;;;;24.47;7.87;;;6.60;99.90;;;;;;5057398;28;20070;-82
2021/11/09 07:34:02;;;;;;;25.40;8.50;;;6.60;99.90;;;;;;5074532;28;20453;-81
2021/11/09 07:36:28;;;;;;;25.40;8.80;;;6.60;99.90;;;;;;5073855;28;20036;-81
2021/11/09 07:38:57;;;;;;;28.93;8.60;;;6.60;99.90;;;;;;5055990;28;20025;-81
2021/11/09 07:41:23;;;;;;;25.05;8.02;;;6.60;99.90;;;;;;5057203;28;20048;-82
2021/11/09 07:43:48;;;;;;;25.73;8.07;;;6.50;99.90;;;;;;5041590;28;20036;-81
2021/11/09 07:46:14;;;;;;;25.37;8.80;;;6.60;99.90;;;;;;5058235;28;20457;-81
2021/11/09 07:48:40;;;;;;;25.57;8.17;;;6.60;99.90;;;;;;5041168;28;20028;-81
2021/11/09 07:51:06;;;;;;;22.83;7.57;;;6.60;99.90;;;;;;5076731;28;20031;-81
2021/11/09 07:53:36;;;;;;;28.10;8.97;;;6.60;99.90;;;;;;5041733;28;20025;-81
2021/11/09 07:56:15;;;;;;;25.97;9.23;;;6.70;99.90;;;;;;5059577;28;20134;-84
2021/11/09 08:01:16;;;;;;;19.83;7.77;;;6.80;99.90;;;;;;5074936;28;20037;-81
2021/11/09 08:03:47;;;;;;;27.63;8.40;;;6.80;99.90;;;;;;5056628;28;20115;-81
2021/11/09 08:06:21;;;;;;;23.80;8.53;;;6.80;99.90;;;;;;5058145;28;20614;-81
2021/11/09 08:08:57;;;;;;;27.20;8.43;;;6.90;99.90;;;;;;5056607;28;20536;-83
2021/11/09 08:11:22;;;;;;;21.63;8.47;;;7.00;99.90;;;;;;5059188;28;20083;-83
2021/11/09 08:13:48;;;;;;;27.83;9.73;;;7.00;99.90;;;;;;5046680;28;20095;-83
2021/11/09 08:16:16;;;;;;;27.20;8.93;;;7.10;99.90;;;;;;5060145;28;20036;-83
2021/11/09 08:18:44;;;;;;;27.50;9.27;;;7.10;99.90;;;;;;5059059;28;20044;-84
2021/11/09 08:21:11;;;;;;;24.00;8.90;;;7.20;99.90;;;;;;5042923;28;20032;-84
2021/11/09 08:23:38;;;;;;;26.63;8.70;;;7.20;99.90;;;;;;5057189;28;20032;-83
2021/11/09 08:26:04;;;;;;;24.03;8.80;;;7.30;99.90;;;;;;5059329;28;20032;-82
2021/11/09 08:28:31;;;;;;;20.03;9.03;;;7.30;99.90;;;;;;5041486;28;20477;-83
2021/11/09 08:31:03;;;;;;;18.43;8.37;;;7.40;99.90;;;;;;5058709;28;20029;-82
2021/11/09 08:33:30;;;;;;;20.03;7.97;;;7.50;99.90;;;;;;5058707;28;20443;-83
2021/11/09 08:35:58;;;;;;;24.40;9.17;;;7.60;99.90;;;;;;5059741;28;20424;-83
2021/11/09 08:38:23;;;;;;;25.33;8.50;;;7.70;99.90;;;;;;5058729;28;20043;-81
2021/11/09 08:40:52;;;;;;;28.63;8.93;;;7.80;99.90;;;;;;5075995;28;20028;-81
2021/11/09 08:43:20;;;;;;;26.05;8.48;;;7.80;99.90;;;;;;5041922;28;20036;-81
2021/11/09 08:45:54;;;;;;;22.53;9.50;;;7.80;99.90;;;;;;5042216;28;20042;-83
2021/11/09 08:48:22;;;;;;;29.80;9.37;;;7.90;99.90;;;;;;5041361;28;20060;-81
2021/11/09 08:50:51;;;;;;;28.40;10.20;;;7.90;99.90;;;;;;5056912;28;20099;-81
2021/11/09 08:53:36;;;;;;;29.48;9.30;;;8.00;99.90;;;;;;5058503;28;20052;-82
2021/11/09 09:04:34;;;;;;;22.33;8.30;;;8.10;99.90;;;;;;5076158;28;20078;-82
2021/11/09 09:07:03;;;;;;;23.52;9.48;;;8.20;99.90;;;;;;5058442;28;20494;-81
2021/11/09 09:09:29;;;;;;;24.83;9.13;;;8.20;99.90;;;;;;5056024;28;20029;-82
2021/11/09 09:11:55;;;;;;;25.53;9.30;;;8.30;99.90;;;;;;5057222;28;20027;-81
2021/11/09 09:14:23;;;;;;;23.03;9.00;;;8.30;99.90;;;;;;5057524;28;20036;-82
2021/11/09 09:16:49;;;;;;;20.37;8.77;;;8.40;99.90;;;;;;5041403;28;20032;-82
2021/11/09 09:19:17;;;;;;;22.23;9.33;;;8.30;99.90;;;;;;5056910;28;20036;-81
2021/11/09 09:21:48;;;;;;;25.17;9.20;;;8.30;99.90;;;;;;5058038;28;20058;-81
2021/11/09 09:29:26;;;;;;;23.70;8.87;;;8.50;99.90;;;;;;5055201;28;20029;-81
2021/11/09 09:32:10;;;;;;;28.60;9.20;;;8.50;99.90;;;;;;5037939;28;20029;-81
2021/11/09 09:54:08;;;;;;;23.87;8.00;;;8.80;99.90;;;;;;5036144;28;20044;-82
2021/11/09 09:56:46;;;;;;;21.63;7.77;;;8.90;99.90;;;;;;5037091;28;20029;-83
2021/11/09 09:59:12;;;;;;;23.33;7.53;;;8.90;99.90;;;;;;5036630;28;20441;-83
2021/11/09 10:01:42;;;;;;;27.90;8.30;;;8.90;99.90;;;;;;5037350;28;20037;-82
2021/11/09 10:04:38;;;;;;;19.80;7.43;;;9.00;99.90;;;;;;5037287;28;20029;-83
2021/11/09 10:07:05;;;;;;;22.37;7.53;;;9.00;99.90;;;;;;5021277;28;20033;-82
2021/11/09 10:09:45;;;;;;;19.43;8.00;;;9.00;99.90;;;;;;5020016;28;20021;-83
2021/11/09 10:12:26;;;;;;;19.67;7.70;;;9.00;99.90;;;;;;5020490;28;20024;-83
2021/11/09 10:15:06;;;;;;;17.50;6.87;;;9.10;99.90;;;;;;5056129;28;20040;-82
2021/11/09 10:17:33;;;;;;;47.47;9.73;;;9.10;99.90;;;;;;5021037;28;20261;-84
2021/11/09 10:20:10;;;;;;;31.47;8.33;;;9.20;99.90;;;;;;5036187;28;20033;-83
2021/11/09 10:22:37;;;;;;;31.33;7.57;;;9.20;99.90;;;;;;5020809;28;20044;-81
2021/11/09 10:25:16;;;;;;;23.20;7.50;;;9.20;99.90;;;;;;5054109;28;20059;-81
2021/11/09 10:27:44;;;;;;;20.35;6.68;;;9.30;99.90;;;;;;5020866;28;20029;-82
2021/11/09 10:30:14;;;;;;;20.20;6.72;;;9.30;99.90;;;;;;5020712;28;20486;-81
2021/11/09 10:32:40;;;;;;;22.17;7.33;;;9.30;99.90;;;;;;5037010;28;20021;-81
2021/11/09 10:35:10;;;;;;;16.63;6.23;;;9.40;99.90;;;;;;5053058;28;20040;-81
2021/11/09 10:37:38;;;;;;;17.87;5.77;;;9.40;99.90;;;;;;5036436;28;20071;-81
2021/11/09 10:40:21;;;;;;;19.27;6.83;;;9.40;99.90;;;;;;5035575;28;20354;-81
2021/11/09 10:42:50;;;;;;;20.50;6.00;;;9.50;99.90;;;;;;5055116;28;20036;-81
2021/11/09 10:45:20;;;;;;;20.65;5.80;;;9.50;99.90;;;;;;5055092;28;20273;-81
2021/11/09 10:47:50;;;;;;;;;;;9.50;99.90;;;;;;5055280;28;20040;-81
2021/11/09 10:50:24;;;;;;;14.60;4.10;;;9.60;99.90;;;;;;5034756;28;19908;-81
2021/11/09 10:53:14;;;;;;;15.57;4.43;;;9.60;99.90;;;;;;5033746;28;20024;-80
2021/11/09 10:56:29;;;;;;;21.10;5.50;;;9.70;99.90;;;;;;5053607;28;20421;-80
2021/11/09 11:04:39;;;;;;;23.50;5.73;;;9.80;99.90;;;;;;5058402;28;20378;-81
2021/11/09 11:07:14;;;;;;;13.50;4.73;;;9.80;99.90;;;;;;5057902;28;20040;-81
2021/11/09 11:09:42;;;;;;;22.43;5.67;;;9.80;99.90;;;;;;5072852;28;20021;-81
2021/11/09 11:12:14;;;;;;;28.63;6.33;;;9.90;99.90;;;;;;5073589;28;20369;-82
2021/11/09 11:14:45;;;;;;;22.10;6.10;;;9.90;99.90;;;;;;5071828;28;20025;-82
2021/11/09 11:17:14;;;;;;;18.63;5.40;;;9.90;99.90;;;;;;5074275;28;20489;-81
2021/11/09 11:19:55;;;;;;;15.30;5.37;;;10.00;99.90;;;;;;5055556;28;20132;-81
2021/11/09 11:22:24;;;;;;;31.00;6.87;;;10.00;99.90;;;;;;5075111;28;20291;-82
2021/11/09 11:24:51;;;;;;;15.70;5.72;;;10.10;99.90;;;;;;5056328;28;20041;-82
2021/11/09 11:27:18;;;;;;;17.07;4.67;;;10.20;99.90;;;;;;5073945;28;20580;-81
2021/11/09 11:29:45;;;;;;;15.53;5.30;;;10.20;99.90;;;;;;5056818;28;20074;-80
2021/11/09 11:32:21;;;;;;;14.57;4.53;;;10.30;99.90;;;;;;5057398;28;20449;-81
2021/11/09 11:34:47;;;;;;;27.67;5.27;;;10.40;99.90;;;;;;5057885;28;20396;-81
2021/11/09 11:37:16;;;;;;;17.30;5.10;;;10.40;99.90;;;;;;5077196;28;20025;-80
2021/11/09 11:39:43;;;;;;;12.57;4.07;;;10.50;99.90;;;;;;5042165;28;20032;-79
2021/11/09 11:42:13;;;;;;;10.60;3.77;;;10.50;99.90;;;;;;5058109;28;20074;-81
2021/11/09 11:44:42;;;;;;;10.57;3.70;;;10.50;99.90;;;;;;5058502;28;20020;-80
2021/11/09 11:47:11;;;;;;;12.20;4.35;;;10.50;99.90;;;;;;5076412;28;20020;-80
2021/11/09 11:49:39;;;;;;;13.55;4.15;;;10.60;99.90;;;;;;5075294;28;20028;-81
2021/11/09 11:52:11;;;;;;;14.05;4.13;;;10.70;99.90;;;;;;5058271;28;20021;-81
2021/11/09 11:54:45;;;;;;;21.27;6.20;;;10.70;99.90;;;;;;5057850;28;20028;-81
2021/11/09 11:57:37;;;;;;;18.27;6.20;;;10.60;99.90;;;;;;5042223;28;20037;-80
2021/11/09 12:00:40;;;;;;;12.93;4.40;;;10.60;99.90;;;;;;5039724;28;20123;-79
2021/11/09 12:03:18;;;;;;;12.50;4.10;;;10.70;99.90;;;;;;5057254;28;20063;-79
2021/11/09 12:05:47;;;;;;;13.80;4.30;;;10.60;99.90;;;;;;5057830;28;20414;-80
2021/11/09 12:08:15;;;;;;;10.32;3.72;;;10.60;99.90;;;;;;5076201;28;20092;-82
2021/11/09 12:10:49;;;;;;;14.40;4.20;;;10.60;99.90;;;;;;5056631;28;20111;-82
2021/11/09 12:13:17;;;;;;;12.33;4.20;;;10.70;99.90;;;;;;5068896;28;20039;-81
2021/11/09 12:16:05;;;;;;;11.20;3.77;;;10.70;99.90;;;;;;5078972;28;20029;-82
2021/11/09 12:18:41;;;;;;;13.30;3.80;;;10.70;99.90;;;;;;5060121;28;20028;-82
2021/11/09 12:21:19;;;;;;;9.97;3.00;;;10.70;99.90;;;;;;5045675;28;20047;-81
2021/11/09 12:24:07;;;;;;;10.67;3.30;;;10.70;99.90;;;;;;5061321;28;20032;-82
2021/11/09 12:26:59;;;;;;;13.43;3.37;;;10.70;99.90;;;;;;5046022;28;20033;-82
2021/11/09 12:29:40;;;;;;;11.63;3.60;;;10.70;99.90;;;;;;5061201;28;20070;-82
2021/11/09 12:32:21;;;;;;;12.50;3.30;;;10.70;99.90;;;;;;5062007;28;20024;-82
2021/11/09 12:35:05;;;;;;;11.87;3.30;;;10.80;99.90;;;;;;5062482;28;20041;-82
2021/11/09 12:37:37;;;;;;;11.40;3.00;;;10.80;99.90;;;;;;5063798;28;20032;-82
2021/11/09 12:40:34;;;;;;;12.00;3.40;;;10.90;99.90;;;;;;5062247;28;20033;-82
2021/11/09 12:43:05;;;;;;;13.77;3.50;;;10.90;99.90;;;;;;5062656;28;20437;-81
2021/11/09 12:45:31;;;;;;;10.47;3.07;;;10.90;99.90;;;;;;5063747;28;20541;-82
2021/11/09 12:48:06;;;;;;;11.23;3.30;;;10.90;99.90;;;;;;5041312;28;20037;-83
2021/11/09 12:50:34;;;;;;;14.43;3.07;;;10.90;99.90;;;;;;5042875;28;20028;-82
2021/11/09 12:53:11;;;;;;;18.47;4.00;;;10.90;99.90;;;;;;5038455;28;20025;-82
2021/11/09 12:55:41;;;;;;;9.50;3.17;;;10.90;99.90;;;;;;5037758;28;20029;-82
2021/11/09 12:58:34;;;;;;;15.27;3.33;;;10.90;99.90;;;;;;5037234;28;20033;-82
2021/11/09 13:01:13;;;;;;;8.73;3.00;;;10.90;99.90;;;;;;5045164;28;20040;-82
2021/11/09 13:03:47;;;;;;;;;;;10.90;99.90;;;;;;5039525;28;20029;-82
2021/11/09 13:09:25;;;;;;;13.13;3.35;;;10.80;99.90;;;;;;5019320;28;20056;-82
2021/11/09 13:12:03;;;;;;;13.13;3.40;;;10.80;99.90;;;;;;5039596;28;20024;-82
2021/11/09 13:14:46;;;;;;;11.67;3.83;;;10.90;99.70;;;;;;5039278;28;20044;-82
2021/11/09 13:17:22;;;;;;;20.37;4.90;;;10.90;99.90;;;;;;5059803;28;20032;-82
2021/11/09 13:20:07;;;;;;;24.23;5.10;;;10.90;99.90;;;;;;5037114;28;20132;-82
2021/11/09 13:22:34;;;;;;;12.13;4.10;;;10.90;99.90;;;;;;5023849;28;20096;-83
2021/11/09 13:25:04;;;;;;;13.13;4.43;;;10.90;99.90;;;;;;5038003;28;20063;-80
2021/11/09 13:27:46;;;;;;;12.70;4.73;;;11.00;99.80;;;;;;5042271;23;20592;-81
2021/11/09 13:30:17;;;;;;;9.83;3.83;;;11.00;99.80;;;;;;5016041;28;20065;-82
2021/11/09 13:32:46;;;;;;;15.60;4.87;;;11.00;99.90;;;;;;5019931;28;20041;-83
2021/11/09 13:35:29;;;;;;;14.50;4.13;;;11.00;99.90;;;;;;5018398;28;20121;-83
2021/11/09 13:38:20;;;;;;;10.47;3.50;;;11.00;99.90;;;;;;5015256;28;20058;-84
2021/11/09 13:40:47;;;;;;;13.33;3.50;;;11.00;99.90;;;;;;5013858;28;20068;-81
2021/11/09 13:43:16;;;;;;;15.60;4.80;;;11.00;99.50;;;;;;4994848;28;20089;-81
2021/11/09 13:45:42;;;;;;;15.85;4.72;;;11.00;99.90;;;;;;4995448;28;20048;-81
2021/11/09 13:48:19;;;;;;;17.97;4.70;;;11.00;99.90;;;;;;4994670;28;20049;-80
2021/11/09 13:50:51;;;;;;;11.93;3.73;;;11.00;99.90;;;;;;4994409;28;20035;-80
2021/11/09 13:53:29;;;;;;;21.83;5.50;;;11.00;99.90;;;;;;5012334;28;20030;-80
2021/11/09 13:55:56;;;;;;;14.52;4.75;;;11.00;99.90;;;;;;5014224;28;20022;-83
2021/11/09 13:58:22;;;;;;;10.90;4.03;;;10.90;99.90;;;;;;5013042;28;20093;-80
2021/11/09 14:00:57;;;;;;;17.17;5.43;;;10.90;99.90;;;;;;4994826;28;20026;-84
2021/11/09 14:14:31;;;;;;;11.90;5.10;;;11.00;99.90;;;;;;4953061;29;20027;-84
2021/11/09 14:16:57;;;;;;;12.40;5.00;;;11.00;99.90;;;;;;4977265;28;20042;-84
2021/11/09 14:19:27;;;;;;;9.90;4.17;;;10.90;99.90;;;;;;4996136;28;20121;-84
2021/11/09 14:21:53;;;;;;;9.10;4.07;;;10.90;99.90;;;;;;4982737;28;20425;-85
2021/11/09 14:24:22;;;;;;;10.63;4.00;;;11.00;99.90;;;;;;5013433;28;20030;-85
2021/11/09 14:27:03;;;;;;;10.63;4.50;;;10.90;99.90;;;;;;4979672;28;20116;-85
2021/11/09 14:29:33;;;;;;;10.20;4.30;;;10.90;99.90;;;;;;5013926;28;20097;-84
2021/11/09 14:32:20;;;;;;;15.00;4.07;;;10.90;99.90;;;;;;4996204;28;20033;-85
2021/11/09 14:35:08;;;;;;;11.20;3.67;;;10.90;99.90;;;;;;4996026;28;20149;-83
2021/11/09 14:40:34;;;;;;;9.23;3.53;;;11.00;99.90;;;;;;4995799;28;20038;-84
2021/11/09 14:43:15;;;;;;;10.03;3.33;;;11.00;99.90;;;;;;4996036;28;20037;-84
2021/11/09 14:48:35;;;;;;;11.73;3.70;;;10.90;99.90;;;;;;4995912;28;20057;-85
2021/11/09 14:51:14;;;;;;;15.57;3.70;;;10.90;99.90;;;;;;5002149;28;20057;-81
2021/11/09 14:56:30;;;;;;;9.07;3.10;;;11.40;99.90;;;;;;5000006;28;20371;-84
2021/11/09 14:58:59;;;;;;;11.30;3.60;;;11.40;99.90;;;;;;4996945;28;20034;-84
2021/11/09 15:01:43;;;;;;;17.30;4.47;;;11.40;99.90;;;;;;5014652;28;20026;-82
2021/11/09 15:04:18;;;;;;;17.47;4.43;;;11.30;99.90;;;;;;4996828;28;20057;-83
2021/11/09 15:12:23;;;;;;;17.87;7.83;;;11.20;99.90;;;;;;4995599;28;20472;-86
2021/11/09 15:31:06;;;;;;;10.63;4.77;;;10.80;99.90;;;;;;5012894;28;20088;-85
2021/11/09 15:33:37;;;;;;;10.00;4.10;;;10.70;99.90;;;;;;4995904;28;20061;-87
2021/11/09 15:38:36;;;;;;;9.33;3.73;;;10.60;99.90;;;;;;5016938;28;20021;-85
2021/11/09 15:41:02;;;;;;;11.77;5.20;;;10.50;99.90;;;;;;5014900;28;20029;-85
2021/11/09 15:43:29;;;;;;;20.00;8.70;;;10.50;99.90;;;;;;5014205;28;20041;-86
2021/11/09 15:45:55;;;;;;;18.63;7.97;;;10.40;99.90;;;;;;5012860;28;20038;-85
2021/11/09 15:48:21;;;;;;;16.90;8.33;;;10.40;99.90;;;;;;5012298;28;20145;-85
2021/11/09 15:50:47;;;;;;;17.40;6.90;;;10.30;99.90;;;;;;4997672;28;20033;-84
2021/11/09 15:53:13;;;;;;;14.77;6.10;;;10.30;99.90;;;;;;4997963;28;20030;-85
2021/11/09 15:55:39;;;;;;;15.07;5.47;;;10.20;99.90;;;;;;5015184;28;20390;-86
2021/11/09 15:58:06;;;;;;;17.80;4.90;;;10.20;99.90;;;;;;4998697;28;20030;-85
2021/11/09 16:00:32;;;;;;;15.00;4.80;;;10.10;99.90;;;;;;4998094;28;20034;-86